Time;durP1;ratioP1;P1;durP2;ratioP2;P2;SDS_P1;SDS_P2;PMS_P1;PMS_P2;Temp;Humidity;BMP_temperature;BMP_pressure;BME280_temperature;BME280_humidity;BME280_pressure;Samples;Min_cycle;Max_cycle;Signal;HPM_P1;HPM_P2
2021/12/27 00:01:14;;;;;;;8.02;5.38;;;;;;;;;;4467923;28;20062;-57
2021/12/27 00:03:24;;;;;;;7.60;5.38;;;;;;;;;;4468008;28;20110;-58
2021/12/27 00:05:35;;;;;;;7.73;5.17;;;;;;;;;;4468953;28;20039;-57
2021/12/27 00:07:49;;;;;;;7.67;5.53;;;;;;;;;;4469702;28;20911;-57
2021/12/27 00:10:00;;;;;;;8.23;5.55;;;;;;;;;;4471289;28;21042;-57
2021/12/27 00:12:11;;;;;;;;;;;;;;;;;;4470747;28;20046;-57
2021/12/27 00:14:21;;;;;;;8.15;5.53;;;;;;;;;;4468968;28;19925;-58
2021/12/27 00:16:31;;;;;;;7.30;5.00;;;;;;;;;;4471791;28;20074;-57
2021/12/27 00:18:42;;;;;;;7.17;5.10;;;;;;;;;;4471136;28;20034;-57
2021/12/27 00:20:52;;;;;;;7.07;5.07;;;;;;;;;;4468704;28;20039;-57
2021/12/27 00:23:03;;;;;;;6.77;5.00;;;;;;;;;;4470578;28;20275;-57
2021/12/27 00:25:14;;;;;;;7.17;5.03;;;;;;;;;;4471137;28;20018;-57
2021/12/27 00:27:25;;;;;;;6.63;4.80;;;;;;;;;;4470305;28;20035;-57
2021/12/27 00:29:35;;;;;;;7.72;5.07;;;;;;;;;;4470894;28;20239;-57
2021/12/27 00:31:46;;;;;;;7.10;5.40;;;;;;;;;;4470391;28;29317;-57
2021/12/27 00:33:56;;;;;;;8.10;5.57;;;;;;;;;;4437702;28;20154;-57
2021/12/27 00:36:07;;;;;;;6.87;4.83;;;;;;;;;;4485670;28;20037;-57
2021/12/27 00:38:17;;;;;;;6.80;4.67;;;;;;;;;;4470739;28;20114;-57
2021/12/27 00:40:28;;;;;;;6.90;4.97;;;;;;;;;;4470876;28;20038;-57
2021/12/27 00:42:38;;;;;;;6.87;4.83;;;;;;;;;;4470282;28;20042;-57
2021/12/27 00:44:48;;;;;;;7.53;5.20;;;;;;;;;;4470156;28;20383;-57
2021/12/27 00:46:59;;;;;;;7.47;4.97;;;;;;;;;;4469898;28;20043;-57
2021/12/27 00:49:10;;;;;;;7.05;5.10;;;;;;;;;;4485442;28;20045;-58
2021/12/27 00:51:20;;;;;;;7.40;5.10;;;;;;;;;;4470247;28;20121;-57
2021/12/27 00:53:31;;;;;;;7.30;4.63;;;;;;;;;;4470763;28;20039;-57
2021/12/27 00:55:41;;;;;;;7.77;5.17;;;;;;;;;;4469624;28;24827;-58
2021/12/27 00:57:53;;;;;;;7.20;5.03;;;;;;;;;;4470107;28;20507;-57
2021/12/27 01:00:05;;;;;;;;;;;;;;;;;;4485984;28;20042;-57
2021/12/27 01:02:15;;;;;;;6.15;4.38;;;;;;;;;;4468882;28;19925;-57
2021/12/27 01:04:26;;;;;;;7.87;5.23;;;;;;;;;;4453143;28;20046;-57
2021/12/27 01:06:36;;;;;;;7.00;4.70;;;;;;;;;;4470551;28;20038;-57
2021/12/27 01:08:47;;;;;;;6.60;4.70;;;;;;;;;;4470321;28;20074;-58
2021/12/27 01:13:40;;;;;;;6.00;4.30;;;;;;;;;;4432865;28;20178;-57
2021/12/27 01:16:10;;;;;;;6.72;4.88;;;;;;;;;;4470043;28;20046;-57
2021/12/27 01:18:20;;;;;;;6.32;4.50;;;;;;;;;;4450960;28;20166;-57
2021/12/27 01:20:31;;;;;;;6.97;4.97;;;;;;;;;;4470192;28;20049;-57
2021/12/27 01:22:42;;;;;;;7.35;5.18;;;;;;;;;;4485646;28;20109;-57
2021/12/27 01:24:52;;;;;;;6.63;4.70;;;;;;;;;;4453123;28;20094;-57
2021/12/27 01:27:03;;;;;;;7.40;4.87;;;;;;;;;;4469487;28;31954;-57
2021/12/27 01:29:13;;;;;;;6.80;4.70;;;;;;;;;;4470685;28;20031;-57
2021/12/27 01:31:24;;;;;;;6.50;4.77;;;;;;;;;;4485033;28;20404;-57
2021/12/27 01:33:35;;;;;;;7.13;4.67;;;;;;;;;;4469032;28;20098;-57
2021/12/27 01:35:46;;;;;;;6.38;4.68;;;;;;;;;;4470991;28;21214;-57
2021/12/27 01:37:57;;;;;;;7.47;5.07;;;;;;;;;;4453153;28;20035;-57
2021/12/27 01:40:09;;;;;;;6.00;4.53;;;;;;;;;;4469975;28;20043;-58
2021/12/27 01:42:20;;;;;;;7.38;5.25;;;;;;;;;;4470122;28;20039;-58
2021/12/27 01:44:31;;;;;;;6.90;5.03;;;;;;;;;;4470798;28;20039;-58
2021/12/27 01:46:41;;;;;;;6.67;4.70;;;;;;;;;;4471251;28;20039;-58
2021/12/27 01:48:56;;;;;;;6.40;4.57;;;;;;;;;;4470280;28;20511;-58
2021/12/27 01:51:10;;;;;;;6.55;4.78;;;;;;;;;;4485100;28;20022;-57
2021/12/27 01:53:26;;;;;;;6.43;4.53;;;;;;;;;;4469970;28;20038;-58
2021/12/27 01:55:37;;;;;;;6.60;4.55;;;;;;;;;;4485590;28;20039;-57
2021/12/27 01:57:48;;;;;;;6.35;4.25;;;;;;;;;;4484561;28;20046;-57
2021/12/27 01:59:58;;;;;;;6.83;4.40;;;;;;;;;;4469127;28;20034;-57
2021/12/27 02:02:11;;;;;;;6.77;4.50;;;;;;;;;;4469623;28;20042;-58
2021/12/27 02:04:22;;;;;;;6.88;4.80;;;;;;;;;;4470156;28;20480;-57
2021/12/27 02:06:32;;;;;;;5.87;4.20;;;;;;;;;;4470194;28;20035;-59
2021/12/27 02:08:44;;;;;;;6.37;4.63;;;;;;;;;;4470520;28;20139;-57
2021/12/27 02:10:54;;;;;;;5.93;4.40;;;;;;;;;;4454486;28;20043;-57
2021/12/27 02:13:05;;;;;;;5.90;3.93;;;;;;;;;;4470206;28;20035;-58
2021/12/27 02:15:15;;;;;;;6.63;4.17;;;;;;;;;;4484166;28;20066;-57
2021/12/27 02:17:26;;;;;;;5.57;4.10;;;;;;;;;;4470018;28;24131;-57
2021/12/27 02:19:37;;;;;;;6.30;4.47;;;;;;;;;;4469710;28;20046;-57
2021/12/27 02:21:48;;;;;;;;;;;;;;;;;;4470152;28;20041;-57
2021/12/27 02:23:59;;;;;;;5.80;4.25;;;;;;;;;;4469475;28;19929;-57
2021/12/27 02:26:10;;;;;;;6.72;4.47;;;;;;;;;;4469859;28;20035;-57
2021/12/27 02:28:21;;;;;;;5.75;3.92;;;;;;;;;;4469308;28;20031;-57
2021/12/27 02:30:33;;;;;;;6.03;4.10;;;;;;;;;;4468871;28;20054;-57
2021/12/27 02:32:50;;;;;;;5.60;3.92;;;;;;;;;;4484461;28;20693;-57
2021/12/27 02:35:00;;;;;;;5.63;4.25;;;;;;;;;;4468241;28;20122;-57
2021/12/27 02:37:11;;;;;;;5.27;3.67;;;;;;;;;;4469492;28;20199;-58
2021/12/27 02:39:21;;;;;;;5.57;4.10;;;;;;;;;;4468883;28;30313;-57
2021/12/27 02:41:32;;;;;;;6.43;3.93;;;;;;;;;;4469146;28;20514;-58
2021/12/27 02:43:43;;;;;;;5.47;3.93;;;;;;;;;;4468674;28;20061;-57
2021/12/27 02:46:02;;;;;;;4.88;3.55;;;;;;;;;;4469428;28;20031;-57
2021/12/27 02:48:14;;;;;;;5.65;3.80;;;;;;;;;;4484726;28;20038;-58
2021/12/27 02:50:26;;;;;;;6.22;4.18;;;;;;;;;;4468668;28;20027;-57
2021/12/27 02:52:36;;;;;;;6.28;4.25;;;;;;;;;;4484142;28;20054;-57
2021/12/27 02:54:47;;;;;;;5.10;3.70;;;;;;;;;;4469039;28;25775;-57
2021/12/27 02:56:57;;;;;;;5.63;3.73;;;;;;;;;;4469202;28;20488;-58
2021/12/27 02:59:07;;;;;;;5.60;4.10;;;;;;;;;;4468888;28;26041;-58
2021/12/27 03:01:20;;;;;;;4.70;3.73;;;;;;;;;;4469718;28;20046;-57
2021/12/27 03:03:31;;;;;;;5.35;3.90;;;;;;;;;;4451338;28;20047;-57
2021/12/27 03:05:43;;;;;;;5.83;3.77;;;;;;;;;;4452108;28;20494;-57
2021/12/27 03:07:55;;;;;;;5.72;4.10;;;;;;;;;;4468766;28;20641;-57
2021/12/27 03:10:08;;;;;;;6.63;4.40;;;;;;;;;;4453904;28;20700;-57
2021/12/27 03:12:18;;;;;;;5.90;4.20;;;;;;;;;;4468391;28;20042;-57
2021/12/27 03:14:28;;;;;;;6.47;4.37;;;;;;;;;;4468338;28;32295;-57
2021/12/27 03:16:39;;;;;;;6.13;4.23;;;;;;;;;;4483512;28;20054;-57
2021/12/27 03:18:52;;;;;;;5.80;3.83;;;;;;;;;;4468247;28;20043;-57
2021/12/27 03:21:03;;;;;;;5.78;3.97;;;;;;;;;;4468162;28;21050;-57
2021/12/27 03:23:14;;;;;;;5.50;3.85;;;;;;;;;;4469099;28;20031;-57
2021/12/27 03:25:25;;;;;;;5.40;4.07;;;;;;;;;;4468224;28;20038;-57
2021/12/27 03:27:36;;;;;;;6.22;4.40;;;;;;;;;;4468881;28;20536;-57
2021/12/27 03:29:46;;;;;;;5.80;4.03;;;;;;;;;;4451892;28;20125;-58
2021/12/27 03:31:58;;;;;;;6.27;4.30;;;;;;;;;;4451257;28;20419;-57
2021/12/27 03:34:08;;;;;;;5.80;4.10;;;;;;;;;;4469165;28;20027;-57
2021/12/27 03:36:24;;;;;;;5.53;4.00;;;;;;;;;;4468187;28;20043;-57
2021/12/27 03:38:45;;;;;;;5.45;4.15;;;;;;;;;;4483639;28;20038;-57
2021/12/27 03:40:55;;;;;;;6.47;4.28;;;;;;;;;;4468512;28;20998;-57
2021/12/27 03:43:06;;;;;;;6.03;4.40;;;;;;;;;;4468499;28;20038;-57
2021/12/27 03:45:22;;;;;;;5.90;4.00;;;;;;;;;;4468872;28;20038;-58
2021/12/27 03:47:32;;;;;;;4.90;3.60;;;;;;;;;;4468360;28;20038;-58
2021/12/27 03:49:43;;;;;;;6.27;3.90;;;;;;;;;;4450814;28;20043;-58
2021/12/27 03:51:53;;;;;;;6.47;4.27;;;;;;;;;;4468770;28;20118;-58
2021/12/27 03:54:04;;;;;;;6.20;4.17;;;;;;;;;;4469792;28;20031;-58
2021/12/27 03:56:14;;;;;;;6.13;3.97;;;;;;;;;;4469438;28;34772;-58
2021/12/27 03:58:32;;;;;;;5.57;3.83;;;;;;;;;;4468365;28;20058;-58
2021/12/27 04:01:15;;;;;;;5.95;4.07;;;;;;;;;;4468418;28;20535;-58
2021/12/27 04:03:16;;;;;;;6.43;4.30;;;;;;;;;;4467181;28;20110;-58
2021/12/27 04:05:27;;;;;;;5.55;3.85;;;;;;;;;;4468820;28;20570;-58
2021/12/27 04:07:39;;;;;;;5.35;3.85;;;;;;;;;;4468616;28;20258;-58
2021/12/27 04:09:50;;;;;;;5.47;3.70;;;;;;;;;;4469004;28;20139;-57
2021/12/27 04:12:00;;;;;;;5.20;3.80;;;;;;;;;;4468664;28;20513;-57
2021/12/27 04:14:11;;;;;;;5.50;3.83;;;;;;;;;;4467748;28;20027;-57
2021/12/27 04:16:22;;;;;;;5.93;4.40;;;;;;;;;;4467536;28;32042;-57
2021/12/27 04:18:32;;;;;;;5.18;3.80;;;;;;;;;;4468727;28;20109;-57
2021/12/27 04:20:43;;;;;;;5.50;3.97;;;;;;;;;;4467263;28;27853;-58
2021/12/27 04:22:53;;;;;;;5.63;3.87;;;;;;;;;;4468116;28;21047;-57
2021/12/27 04:25:04;;;;;;;6.30;4.47;;;;;;;;;;4467644;28;20035;-57
2021/12/27 04:27:14;;;;;;;5.17;3.83;;;;;;;;;;4453854;28;20124;-57
2021/12/27 04:29:25;;;;;;;5.77;4.20;;;;;;;;;;4482886;28;20599;-59
2021/12/27 04:31:35;;;;;;;5.60;3.90;;;;;;;;;;4468071;28;20042;-58
2021/12/27 04:33:45;;;;;;;6.00;3.70;;;;;;;;;;4482763;28;20435;-57
2021/12/27 04:35:56;;;;;;;5.03;3.33;;;;;;;;;;4467431;28;20054;-57
2021/12/27 04:38:06;;;;;;;5.20;3.57;;;;;;;;;;4467680;28;20096;-58
2021/12/27 04:40:20;;;;;;;5.03;3.37;;;;;;;;;;4467695;28;20042;-57
2021/12/27 04:42:31;;;;;;;4.53;3.47;;;;;;;;;;4482217;28;20038;-57
2021/12/27 04:44:41;;;;;;;4.97;3.38;;;;;;;;;;4468492;28;20034;-58
2021/12/27 04:46:52;;;;;;;5.30;3.70;;;;;;;;;;4468035;28;20043;-58
2021/12/27 04:49:03;;;;;;;5.10;3.80;;;;;;;;;;4483188;28;20533;-58
2021/12/27 04:51:13;;;;;;;5.53;3.83;;;;;;;;;;4467674;28;20039;-57
2021/12/27 04:53:23;;;;;;;4.23;3.13;;;;;;;;;;4469983;28;23451;-57
2021/12/27 04:55:35;;;;;;;5.33;3.43;;;;;;;;;;4471263;28;20041;-57
2021/12/27 04:57:45;;;;;;;4.38;3.17;;;;;;;;;;4485765;28;20049;-57
2021/12/27 04:59:56;;;;;;;4.87;3.30;;;;;;;;;;4470253;28;20046;-58
2021/12/27 05:02:06;;;;;;;4.60;3.17;;;;;;;;;;4470897;28;20062;-57
2021/12/27 05:04:17;;;;;;;4.30;3.00;;;;;;;;;;4470987;28;20705;-58
2021/12/27 05:06:27;;;;;;;4.20;2.90;;;;;;;;;;4471062;28;20077;-58
2021/12/27 05:08:38;;;;;;;4.77;3.67;;;;;;;;;;4470672;28;20757;-57
2021/12/27 05:10:48;;;;;;;5.03;3.23;;;;;;;;;;4471218;28;20046;-57
2021/12/27 05:12:59;;;;;;;4.87;3.37;;;;;;;;;;4471392;28;20046;-57
2021/12/27 05:15:09;;;;;;;4.47;3.07;;;;;;;;;;4486042;28;20113;-58
2021/12/27 05:17:20;;;;;;;4.10;3.03;;;;;;;;;;4484254;28;20037;-58
2021/12/27 05:19:30;;;;;;;4.47;3.03;;;;;;;;;;4485610;28;20038;-58
2021/12/27 05:21:41;;;;;;;4.37;3.20;;;;;;;;;;4469783;28;35554;-58
2021/12/27 05:23:51;;;;;;;4.30;3.03;;;;;;;;;;4471106;28;20030;-58
2021/12/27 05:26:02;;;;;;;4.70;3.00;;;;;;;;;;4485225;28;20050;-58
2021/12/27 05:28:13;;;;;;;4.00;3.10;;;;;;;;;;4470471;28;21219;-58
2021/12/27 05:30:23;;;;;;;4.40;3.10;;;;;;;;;;4469793;28;20495;-57
2021/12/27 05:32:35;;;;;;;4.50;3.13;;;;;;;;;;4470718;28;20143;-57
2021/12/27 05:34:45;;;;;;;3.60;2.72;;;;;;;;;;4485589;28;20038;-57
2021/12/27 05:36:56;;;;;;;4.37;3.13;;;;;;;;;;4469600;28;27713;-57
2021/12/27 05:39:07;;;;;;;3.87;2.70;;;;;;;;;;4452202;28;20079;-58
2021/12/27 05:41:17;;;;;;;4.73;3.13;;;;;;;;;;4469213;28;20271;-58
2021/12/27 05:43:28;;;;;;;3.73;2.67;;;;;;;;;;4470060;28;20042;-57
2021/12/27 05:45:38;;;;;;;3.87;2.63;;;;;;;;;;4452003;28;20122;-58
2021/12/27 05:47:49;;;;;;;3.80;2.67;;;;;;;;;;4470832;28;20063;-58
2021/12/27 05:49:59;;;;;;;2.90;2.37;;;;;;;;;;4473327;28;20034;-58
2021/12/27 05:52:10;;;;;;;3.40;2.70;;;;;;;;;;4470052;28;20042;-58
2021/12/27 05:54:21;;;;;;;3.10;2.40;;;;;;;;;;4453211;28;20038;-58
2021/12/27 05:56:31;;;;;;;4.43;2.67;;;;;;;;;;4469809;28;20042;-58
2021/12/27 05:58:42;;;;;;;3.80;2.77;;;;;;;;;;4469844;28;20128;-58
2021/12/27 06:00:52;;;;;;;3.20;2.50;;;;;;;;;;4470912;28;20122;-58
2021/12/27 06:03:02;;;;;;;3.47;2.60;;;;;;;;;;4469871;28;20349;-58
2021/12/27 06:05:13;;;;;;;3.67;2.60;;;;;;;;;;4467586;28;20034;-58
2021/12/27 06:07:24;;;;;;;3.55;2.53;;;;;;;;;;4485032;28;20895;-58
2021/12/27 06:09:34;;;;;;;2.70;2.07;;;;;;;;;;4467953;28;20047;-58
2021/12/27 06:11:45;;;;;;;2.93;2.40;;;;;;;;;;4470191;28;20133;-58
2021/12/27 06:13:55;;;;;;;3.10;2.47;;;;;;;;;;4470304;28;20105;-59
2021/12/27 06:16:06;;;;;;;3.10;2.40;;;;;;;;;;4470154;28;20711;-57
2021/12/27 06:18:16;;;;;;;3.00;2.20;;;;;;;;;;4485470;28;20051;-57
2021/12/27 06:20:27;;;;;;;3.83;2.43;;;;;;;;;;4470206;28;20050;-58
2021/12/27 06:22:40;;;;;;;3.37;2.30;;;;;;;;;;4469061;28;20066;-58
2021/12/27 06:24:50;;;;;;;2.83;2.10;;;;;;;;;;4470034;28;20821;-58
2021/12/27 06:27:01;;;;;;;3.93;2.83;;;;;;;;;;4469921;28;20039;-56
2021/12/27 06:29:11;;;;;;;3.63;2.50;;;;;;;;;;4469784;28;20041;-57
2021/12/27 06:31:22;;;;;;;3.37;2.63;;;;;;;;;;4454174;28;20046;-57
2021/12/27 06:33:33;;;;;;;2.92;2.20;;;;;;;;;;4469693;28;20910;-57
2021/12/27 06:35:43;;;;;;;3.23;2.43;;;;;;;;;;4469941;28;20039;-57
2021/12/27 06:37:54;;;;;;;3.20;2.30;;;;;;;;;;4469468;28;20075;-57
2021/12/27 06:40:05;;;;;;;3.20;2.30;;;;;;;;;;4468923;28;20038;-57
2021/12/27 06:42:16;;;;;;;3.28;2.63;;;;;;;;;;4467617;28;20035;-58
2021/12/27 06:44:26;;;;;;;3.17;2.30;;;;;;;;;;4468473;28;20042;-57
2021/12/27 06:46:36;;;;;;;3.10;2.23;;;;;;;;;;4469403;28;20101;-57
2021/12/27 06:48:47;;;;;;;2.90;2.10;;;;;;;;;;4452462;28;20035;-57
2021/12/27 06:50:58;;;;;;;2.70;2.30;;;;;;;;;;4468930;28;20078;-57
2021/12/27 06:53:08;;;;;;;3.00;2.30;;;;;;;;;;4452279;28;20530;-57
2021/12/27 06:55:19;;;;;;;2.90;2.13;;;;;;;;;;4469085;28;20081;-57
2021/12/27 06:57:30;;;;;;;3.57;2.43;;;;;;;;;;4469786;28;20078;-57
2021/12/27 06:59:40;;;;;;;3.58;2.30;;;;;;;;;;4435487;28;20103;-57
2021/12/27 07:01:51;;;;;;;2.57;2.10;;;;;;;;;;4435255;28;20134;-57
2021/12/27 07:04:01;;;;;;;3.00;2.23;;;;;;;;;;4466860;28;20034;-57
2021/12/27 07:06:11;;;;;;;2.43;1.90;;;;;;;;;;4451306;28;20087;-57
2021/12/27 07:08:22;;;;;;;3.00;2.23;;;;;;;;;;4468841;28;28625;-56
2021/12/27 07:10:33;;;;;;;2.67;2.20;;;;;;;;;;4469337;28;20034;-57
2021/12/27 07:12:43;;;;;;;3.03;2.20;;;;;;;;;;4467852;28;20039;-57
2021/12/27 07:14:54;;;;;;;2.30;1.90;;;;;;;;;;4482537;28;20042;-57
2021/12/27 07:17:04;;;;;;;2.53;2.20;;;;;;;;;;4468297;28;20042;-56
2021/12/27 07:19:15;;;;;;;2.57;2.17;;;;;;;;;;4469662;28;20468;-56
2021/12/27 07:21:25;;;;;;;2.50;2.00;;;;;;;;;;4468702;28;20094;-57
2021/12/27 07:23:36;;;;;;;3.10;2.13;;;;;;;;;;4468938;28;20663;-56
2021/12/27 07:25:46;;;;;;;2.60;2.00;;;;;;;;;;4468033;28;20530;-56
2021/12/27 07:27:57;;;;;;;3.10;2.10;;;;;;;;;;4453990;28;20035;-56
2021/12/27 07:30:10;;;;;;;2.37;1.83;;;;;;;;;;4468628;28;20043;-56
2021/12/27 07:32:20;;;;;;;2.55;1.83;;;;;;;;;;4451196;28;20795;-56
2021/12/27 07:34:31;;;;;;;2.50;1.80;;;;;;;;;;4468388;28;20035;-56
2021/12/27 07:36:41;;;;;;;3.17;2.13;;;;;;;;;;4452182;28;20035;-56
2021/12/27 07:38:52;;;;;;;2.07;1.63;;;;;;;;;;4468316;28;20076;-57
2021/12/27 07:41:02;;;;;;;2.20;1.80;;;;;;;;;;4467032;28;20490;-57
2021/12/27 07:43:13;;;;;;;2.40;1.97;;;;;;;;;;4467106;28;20042;-57
2021/12/27 07:45:23;;;;;;;2.47;1.80;;;;;;;;;;4449006;28;20267;-56
2021/12/27 07:47:34;;;;;;;3.30;2.00;;;;;;;;;;4467252;28;20050;-56
2021/12/27 07:49:45;;;;;;;3.22;2.00;;;;;;;;;;4483159;28;20034;-56
2021/12/27 07:51:55;;;;;;;2.43;1.83;;;;;;;;;;4467238;28;20031;-57
2021/12/27 07:54:06;;;;;;;2.37;1.90;;;;;;;;;;4467942;28;20266;-57
2021/12/27 07:56:16;;;;;;;2.38;1.70;;;;;;;;;;4450056;28;20130;-57
2021/12/27 07:58:27;;;;;;;4.40;3.90;;;;;;;;;;4468149;28;20046;-57
2021/12/27 08:00:37;;;;;;;9.57;7.83;;;;;;;;;;4467960;28;20113;-57
2021/12/27 08:02:48;;;;;;;7.57;5.50;;;;;;;;;;4468569;28;20035;-62
2021/12/27 08:04:58;;;;;;;3.07;2.30;;;;;;;;;;4468189;28;20039;-58
2021/12/27 08:07:09;;;;;;;3.00;2.00;;;;;;;;;;4467817;28;20046;-58
2021/12/27 08:09:19;;;;;;;2.80;2.00;;;;;;;;;;4466955;28;20558;-58
2021/12/27 08:11:30;;;;;;;3.30;2.00;;;;;;;;;;4467339;28;20138;-58
2021/12/27 08:13:42;;;;;;;2.60;1.90;;;;;;;;;;4467331;28;20043;-58
2021/12/27 08:15:52;;;;;;;2.15;1.65;;;;;;;;;;4467294;28;20134;-59
2021/12/27 08:18:03;;;;;;;3.97;1.90;;;;;;;;;;4466642;28;20045;-59
2021/12/27 08:20:13;;;;;;;21.87;17.73;;;;;;;;;;4466967;28;20034;-59
2021/12/27 08:22:24;;;;;;;21.50;18.60;;;;;;;;;;4467441;28;20039;-59
2021/12/27 08:24:34;;;;;;;20.63;18.43;;;;;;;;;;4467250;28;20042;-59
2021/12/27 08:26:45;;;;;;;21.07;18.23;;;;;;;;;;4469204;28;20050;-59
2021/12/27 08:28:56;;;;;;;21.70;19.50;;;;;;;;;;4468632;28;20337;-58
2021/12/27 08:31:06;;;;;;;22.98;19.58;;;;;;;;;;4469834;28;20094;-58
2021/12/27 08:33:17;;;;;;;21.20;18.27;;;;;;;;;;4469692;28;20063;-58
2021/12/27 08:35:27;;;;;;;22.07;19.20;;;;;;;;;;4470573;28;20089;-58
2021/12/27 08:37:38;;;;;;;20.77;18.67;;;;;;;;;;4470221;28;20042;-58
2021/12/27 08:39:48;;;;;;;20.33;18.20;;;;;;;;;;4469392;28;20045;-58
2021/12/27 08:41:59;;;;;;;20.27;18.17;;;;;;;;;;4469312;28;20041;-58
2021/12/27 08:44:09;;;;;;;20.37;18.03;;;;;;;;;;4470451;28;20499;-59
2021/12/27 08:46:20;;;;;;;19.70;17.70;;;;;;;;;;4452542;28;20039;-58
2021/12/27 08:48:30;;;;;;;21.53;18.90;;;;;;;;;;4469800;28;20567;-59
2021/12/27 08:50:41;;;;;;;21.97;17.67;;;;;;;;;;4484581;28;20058;-58
2021/12/27 08:52:51;;;;;;;21.90;17.97;;;;;;;;;;4484366;28;20041;-59
2021/12/27 08:55:03;;;;;;;18.97;16.97;;;;;;;;;;4469698;28;20489;-59
2021/12/27 08:57:13;;;;;;;22.20;17.95;;;;;;;;;;4451688;28;20085;-59
2021/12/27 08:59:24;;;;;;;19.60;17.50;;;;;;;;;;4469997;28;20112;-59
2021/12/27 09:01:34;;;;;;;21.33;17.83;;;;;;;;;;4469273;28;20050;-58
2021/12/27 09:03:45;;;;;;;19.47;17.37;;;;;;;;;;4468176;28;20074;-58
2021/12/27 09:05:55;;;;;;;18.73;16.83;;;;;;;;;;4469679;28;20380;-59
2021/12/27 09:08:06;;;;;;;18.53;16.37;;;;;;;;;;4469485;28;20042;-59
2021/12/27 09:10:17;;;;;;;18.55;16.35;;;;;;;;;;4469695;28;20066;-58
2021/12/27 09:12:27;;;;;;;18.80;16.80;;;;;;;;;;4451755;28;20575;-58
2021/12/27 09:14:38;;;;;;;19.37;17.40;;;;;;;;;;4470206;28;20027;-58
2021/12/27 09:16:48;;;;;;;18.27;16.30;;;;;;;;;;4470230;28;20066;-58
2021/12/27 09:18:58;;;;;;;17.70;15.20;;;;;;;;;;4469927;28;20573;-59
2021/12/27 09:21:09;;;;;;;18.37;16.57;;;;;;;;;;4470145;28;20030;-58
2021/12/27 09:23:20;;;;;;;17.40;15.60;;;;;;;;;;4469970;28;20121;-58
2021/12/27 09:25:30;;;;;;;17.57;15.77;;;;;;;;;;4452048;28;20791;-58
2021/12/27 09:27:41;;;;;;;17.03;15.23;;;;;;;;;;4469531;28;20089;-59
2021/12/27 09:29:51;;;;;;;17.70;15.80;;;;;;;;;;4469298;28;20035;-59
2021/12/27 09:32:02;;;;;;;17.40;15.40;;;;;;;;;;4469661;28;20508;-58
2021/12/27 09:34:13;;;;;;;16.80;15.00;;;;;;;;;;4469719;28;20034;-59
2021/12/27 09:36:23;;;;;;;17.00;15.30;;;;;;;;;;4470116;28;20083;-58
2021/12/27 09:38:34;;;;;;;16.73;14.98;;;;;;;;;;4468851;28;22367;-58
2021/12/27 09:40:44;;;;;;;18.53;16.60;;;;;;;;;;4470278;28;20146;-58
2021/12/27 09:42:55;;;;;;;17.37;15.37;;;;;;;;;;4452331;28;20047;-58
2021/12/27 09:45:07;;;;;;;17.67;15.77;;;;;;;;;;4452190;28;20398;-59
2021/12/27 09:47:18;;;;;;;18.17;16.15;;;;;;;;;;4485013;28;20041;-59
2021/12/27 09:49:29;;;;;;;19.00;17.00;;;;;;;;;;4470071;28;20038;-58
2021/12/27 09:51:40;;;;;;;18.80;16.33;;;;;;;;;;4469694;28;20794;-59
2021/12/27 09:53:52;;;;;;;17.90;15.98;;;;;;;;;;4482517;28;20043;-58
2021/12/27 09:56:06;;;;;;;19.13;17.13;;;;;;;;;;4483223;28;20064;-58
2021/12/27 09:58:17;;;;;;;19.80;16.73;;;;;;;;;;4450028;28;20047;-58
2021/12/27 10:00:28;;;;;;;18.27;16.37;;;;;;;;;;4483067;28;20043;-58
2021/12/27 10:02:39;;;;;;;19.30;17.02;;;;;;;;;;4483758;28;20444;-58
2021/12/27 10:04:50;;;;;;;18.48;16.67;;;;;;;;;;4469553;28;20041;-59
2021/12/27 10:07:00;;;;;;;25.63;17.50;;;;;;;;;;4469169;28;20478;-59
2021/12/27 10:09:11;;;;;;;22.73;17.17;;;;;;;;;;4481613;28;20031;-59
2021/12/27 10:11:25;;;;;;;19.50;16.90;;;;;;;;;;4469506;28;20047;-59
2021/12/27 10:13:35;;;;;;;18.73;16.83;;;;;;;;;;4451466;28;20037;-58
2021/12/27 10:15:47;;;;;;;19.60;16.67;;;;;;;;;;4469680;28;20081;-58
2021/12/27 10:17:57;;;;;;;20.70;16.17;;;;;;;;;;4449489;28;20055;-59
2021/12/27 10:20:15;;;;;;;21.80;17.37;;;;;;;;;;4448587;28;20036;-59
2021/12/27 10:22:26;;;;;;;19.13;16.63;;;;;;;;;;4467416;28;20837;-59
2021/12/27 10:24:37;;;;;;;19.55;17.38;;;;;;;;;;4450832;28;20045;-59
2021/12/27 10:26:52;;;;;;;29.03;17.07;;;;;;;;;;4469065;28;20042;-58
2021/12/27 10:29:30;;;;;;;23.40;17.42;;;;;;;;;;4469226;28;20038;-58
2021/12/27 10:32:11;;;;;;;18.92;17.00;;;;;;;;;;4449554;28;20047;-58
2021/12/27 10:34:23;;;;;;;20.15;17.15;;;;;;;;;;4451572;28;20039;-58
2021/12/27 10:36:34;;;;;;;21.35;17.10;;;;;;;;;;4467333;28;20045;-59
2021/12/27 10:38:53;;;;;;;19.77;17.67;;;;;;;;;;4435105;28;20057;-58
2021/12/27 10:41:10;;;;;;;19.73;17.17;;;;;;;;;;4483642;28;20039;-58
2021/12/27 10:43:41;;;;;;;21.13;16.98;;;;;;;;;;4468660;28;20609;-58
2021/12/27 10:45:52;;;;;;;21.27;17.93;;;;;;;;;;4468342;28;20031;-58
2021/12/27 10:48:03;;;;;;;19.27;17.27;;;;;;;;;;4452002;28;20267;-58
2021/12/27 10:50:19;;;;;;;20.87;17.83;;;;;;;;;;4468750;28;20362;-58
2021/12/27 10:52:40;;;;;;;20.05;17.33;;;;;;;;;;4468594;28;20038;-58
2021/12/27 10:55:00;;;;;;;19.00;17.00;;;;;;;;;;4468044;28;20030;-58
2021/12/27 10:57:11;;;;;;;21.40;18.33;;;;;;;;;;4468886;28;20043;-58
2021/12/27 10:59:21;;;;;;;19.23;17.27;;;;;;;;;;4467687;28;20114;-58
2021/12/27 11:01:32;;;;;;;20.90;18.07;;;;;;;;;;4467081;28;35680;-59
2021/12/27 11:03:43;;;;;;;21.63;17.87;;;;;;;;;;4467962;28;20077;-58
2021/12/27 11:05:54;;;;;;;20.17;17.05;;;;;;;;;;4466867;28;20134;-58
2021/12/27 11:08:05;;;;;;;23.93;18.20;;;;;;;;;;4468628;28;20122;-59
2021/12/27 11:10:15;;;;;;;20.25;17.50;;;;;;;;;;4467359;28;20043;-58
2021/12/27 11:12:26;;;;;;;21.10;17.97;;;;;;;;;;4468471;28;20342;-59
2021/12/27 11:14:38;;;;;;;21.50;18.23;;;;;;;;;;4467267;28;20067;-58
2021/12/27 11:16:49;;;;;;;21.58;19.27;;;;;;;;;;4467075;28;20043;-59
2021/12/27 11:19:00;;;;;;;22.17;19.27;;;;;;;;;;4464069;28;27197;-58
2021/12/27 11:21:19;;;;;;;20.80;18.53;;;;;;;;;;4466354;28;20038;-58
2021/12/27 11:23:30;;;;;;;21.20;18.38;;;;;;;;;;4481602;28;20137;-60
2021/12/27 11:25:42;;;;;;;;;;;;;;;;;;4450184;28;20150;-59
2021/12/27 11:27:52;;;;;;;22.20;18.60;;;;;;;;;;4465246;28;20568;-59
2021/12/27 11:30:09;;;;;;;21.97;19.77;;;;;;;;;;4481004;28;20450;-59
2021/12/27 11:32:21;;;;;;;28.83;20.10;;;;;;;;;;4452465;28;20039;-59
2021/12/27 11:34:31;;;;;;;;;;;;;;;;;;4468039;28;20042;-59
2021/12/27 11:36:48;;;;;;;23.35;20.35;;;;;;;;;;4448758;28;19918;-59
2021/12/27 11:39:16;;;;;;;22.20;19.80;;;;;;;;;;4461595;28;20048;-59
2021/12/27 11:41:32;;;;;;;24.83;20.20;;;;;;;;;;4474128;28;20510;-58
2021/12/27 11:43:47;;;;;;;23.27;20.30;;;;;;;;;;4466361;28;21211;-57
2021/12/27 11:45:58;;;;;;;23.30;20.83;;;;;;;;;;4466917;28;20031;-58
2021/12/27 11:48:16;;;;;;;23.47;20.97;;;;;;;;;;4451090;28;20031;-58
2021/12/27 11:50:29;;;;;;;23.10;20.58;;;;;;;;;;4449896;28;20984;-58
2021/12/27 11:52:42;;;;;;;24.55;21.80;;;;;;;;;;4447856;28;28949;-58
2021/12/27 11:55:17;;;;;;;23.23;20.83;;;;;;;;;;4467996;28;20054;-58
2021/12/27 11:57:37;;;;;;;23.80;21.30;;;;;;;;;;4429782;28;20056;-58
2021/12/27 11:59:47;;;;;;;22.75;20.35;;;;;;;;;;4429863;28;20618;-58
2021/12/27 12:02:24;;;;;;;23.30;20.87;;;;;;;;;;4422999;28;20092;-58
2021/12/27 12:04:44;;;;;;;24.17;21.60;;;;;;;;;;4431279;28;20613;-58
2021/12/27 12:06:55;;;;;;;24.42;21.75;;;;;;;;;;4434332;28;20150;-58
2021/12/27 12:09:19;;;;;;;24.73;22.17;;;;;;;;;;4435769;28;20143;-58
2021/12/27 12:11:33;;;;;;;24.67;21.48;;;;;;;;;;4421786;28;20616;-58
2021/12/27 12:13:45;;;;;;;24.67;22.08;;;;;;;;;;4433252;28;20042;-59
2021/12/27 12:16:03;;;;;;;27.20;22.42;;;;;;;;;;4435121;28;20056;-58
2021/12/27 12:18:17;;;;;;;26.20;23.45;;;;;;;;;;4434559;28;20099;-58
2021/12/27 12:20:37;;;;;;;25.08;22.38;;;;;;;;;;4432439;28;20036;-58
2021/12/27 12:22:47;;;;;;;26.20;23.45;;;;;;;;;;4432621;28;20052;-59
2021/12/27 12:25:11;;;;;;;25.47;22.70;;;;;;;;;;4422939;28;20040;-58
2021/12/27 12:27:22;;;;;;;25.60;22.88;;;;;;;;;;4435918;28;20051;-58
2021/12/27 12:29:40;;;;;;;25.03;22.43;;;;;;;;;;4434724;28;20042;-58
2021/12/27 12:32:00;;;;;;;25.67;23.08;;;;;;;;;;4434497;28;20657;-59
2021/12/27 12:34:18;;;;;;;25.50;22.90;;;;;;;;;;4430006;28;20625;-59
2021/12/27 12:36:29;;;;;;;27.45;24.65;;;;;;;;;;4470819;28;20045;-58
2021/12/27 12:38:39;;;;;;;26.63;23.97;;;;;;;;;;4472766;28;20550;-59
2021/12/27 12:41:05;;;;;;;28.63;25.33;;;;;;;;;;4472891;28;20034;-59
2021/12/27 12:43:51;;;;;;;28.77;24.95;;;;;;;;;;4473144;28;20035;-59
2021/12/27 12:46:11;;;;;;;26.98;24.08;;;;;;;;;;4472414;28;20157;-60
2021/12/27 12:48:28;;;;;;;27.67;24.77;;;;;;;;;;4474332;28;20031;-60
2021/12/27 12:50:40;;;;;;;28.55;25.20;;;;;;;;;;4473829;28;20054;-59
2021/12/27 12:52:54;;;;;;;26.97;24.23;;;;;;;;;;4473032;28;20426;-59
2021/12/27 12:55:05;;;;;;;26.42;23.73;;;;;;;;;;4487634;28;20499;-59
2021/12/27 12:57:18;;;;;;;26.87;23.83;;;;;;;;;;4472980;28;20039;-59
2021/12/27 12:59:34;;;;;;;26.23;23.42;;;;;;;;;;4471207;28;20043;-59
2021/12/27 13:02:03;;;;;;;26.88;24.15;;;;;;;;;;4446198;28;20032;-58
2021/12/27 13:04:13;;;;;;;26.38;23.60;;;;;;;;;;4472756;28;20042;-59
2021/12/27 13:06:24;;;;;;;26.17;23.47;;;;;;;;;;4472514;28;20904;-58
2021/12/27 13:08:34;;;;;;;26.87;24.07;;;;;;;;;;4472929;28;20064;-58